createdAt,value
2022-10-08T00:01:48.968Z,89.92
2022-10-08T00:04:20.147Z,90.13
2022-10-08T00:06:54.753Z,90.68
2022-10-08T00:09:23.799Z,90.71
2022-10-08T00:11:50.778Z,90.97
2022-10-08T00:14:17.863Z,91.06
2022-10-08T00:16:50.566Z,91.15
2022-10-08T00:19:26.295Z,91.71
2022-10-08T00:22:13.165Z,90.74
2022-10-08T00:24:55.818Z,90.99
2022-10-08T00:27:28.883Z,90.81
2022-10-08T00:30:06.805Z,90.62
2022-10-08T00:32:34.991Z,90.68
2022-10-08T00:35:11.628Z,90.67
2022-10-08T00:37:48.736Z,90.71
2022-10-08T00:40:48.973Z,91.70
2022-10-08T00:43:42.434Z,91.78
2022-10-08T00:49:28.208Z,91.38
2022-10-08T00:52:01.529Z,91.46
2022-10-08T00:54:47.941Z,91.48
2022-10-08T00:57:28.636Z,92.04
2022-10-08T01:00:13.002Z,91.72
2022-10-08T01:02:43.630Z,92.08
2022-10-08T01:05:24.852Z,91.47
2022-10-08T01:08:03.237Z,91.40
2022-10-08T01:10:51.669Z,91.83
2022-10-08T01:13:45.736Z,92.00
2022-10-08T01:16:47.410Z,92.05
2022-10-08T01:19:57.997Z,92.03
2022-10-08T01:22:50.193Z,92.09
2022-10-08T01:29:03.344Z,92.21
2022-10-08T01:31:47.800Z,92.31
2022-10-08T01:34:37.583Z,92.63
2022-10-08T01:40:00.613Z,92.59
2022-10-08T01:42:35.006Z,92.92
2022-10-08T01:45:19.558Z,92.85
2022-10-08T01:47:51.399Z,92.74
2022-10-08T01:50:33.235Z,93.36
2022-10-08T01:53:19.530Z,93.48
2022-10-08T01:55:50.870Z,93.22
2022-10-08T01:58:36.654Z,93.55
2022-10-08T02:01:40.965Z,93.79
2022-10-08T02:04:12.590Z,93.37
2022-10-08T02:07:06.693Z,93.44
2022-10-08T02:09:50.540Z,93.29
2022-10-08T02:12:18.502Z,93.48
2022-10-08T02:15:01.470Z,93.59
2022-10-08T02:17:45.155Z,93.22
2022-10-08T02:20:20.889Z,93.11
2022-10-08T02:22:59.461Z,93.16
2022-10-08T02:25:36.201Z,93.07
2022-10-08T02:28:24.624Z,93.25
2022-10-08T02:31:18.989Z,92.92
2022-10-08T02:33:56.966Z,93.13
2022-10-08T02:36:31.763Z,92.85
2022-10-08T02:41:49.299Z,92.80
2022-10-08T02:44:41.112Z,92.81
2022-10-08T02:47:21.863Z,92.84
2022-10-08T02:49:59.359Z,92.89
2022-10-08T02:52:35.303Z,92.96
2022-10-08T02:55:25.557Z,93.28
2022-10-08T02:58:21.248Z,93.33
2022-10-08T03:01:02.589Z,93.55
2022-10-08T03:03:57.833Z,93.58
2022-10-08T03:06:39.487Z,93.90
2022-10-08T03:09:16.479Z,93.84
2022-10-08T03:11:47.273Z,93.96
2022-10-08T03:14:25.310Z,94.56
2022-10-08T03:17:00.472Z,94.40
2022-10-08T03:19:28.177Z,94.61
2022-10-08T03:22:10.221Z,94.35
2022-10-08T03:24:42.073Z,94.32
2022-10-08T03:27:13.955Z,94.17
2022-10-08T03:29:41.602Z,93.96
2022-10-08T03:32:14.016Z,94.22
2022-10-08T03:34:42.600Z,93.83
2022-10-08T03:37:22.560Z,93.76
2022-10-08T03:40:02.286Z,93.43
2022-10-08T03:42:49.661Z,93.30
2022-10-08T03:45:25.957Z,93.09
2022-10-08T03:47:56.206Z,93.00
2022-10-08T03:50:25.661Z,93.09
2022-10-08T03:53:17.866Z,92.45
2022-10-08T03:55:47.916Z,92.60
2022-10-08T03:58:31.729Z,92.85
2022-10-08T04:01:05.046Z,92.52
2022-10-08T04:06:19.796Z,92.23
2022-10-08T04:11:40.594Z,92.04
2022-10-08T04:14:13.999Z,92.16
2022-10-08T04:16:54.021Z,92.01
2022-10-08T04:19:30.089Z,92.37
2022-10-08T04:22:02.211Z,92.44
2022-10-08T04:24:34.235Z,92.24
2022-10-08T04:27:05.699Z,92.28
2022-10-08T04:29:36.839Z,92.29
2022-10-08T04:32:07.217Z,92.32
2022-10-08T04:34:44.422Z,91.83
2022-10-08T04:37:21.522Z,92.20
2022-10-08T04:40:05.184Z,92.32
2022-10-08T04:42:35.381Z,92.19
2022-10-08T04:45:11.869Z,92.28
2022-10-08T04:47:46.375Z,91.94
2022-10-08T04:53:24.665Z,92.16
2022-10-08T04:56:09.024Z,92.52
2022-10-08T04:58:46.101Z,92.28
2022-10-08T05:01:17.611Z,91.93
2022-10-08T05:03:53.903Z,91.99
2022-10-08T05:06:33.749Z,92.06
2022-10-08T05:09:26.673Z,91.91
2022-10-08T05:12:43.281Z,92.10
2022-10-08T05:15:46.781Z,91.81
2022-10-08T05:18:53.333Z,92.27
2022-10-08T05:21:55.681Z,92.09
2022-10-08T05:24:31.126Z,92.58
2022-10-08T05:27:26.927Z,92.38
2022-10-08T05:30:04.420Z,92.59
2022-10-08T05:32:47.261Z,92.26
2022-10-08T05:35:30.652Z,92.45
2022-10-08T05:38:02.633Z,92.43
2022-10-08T05:40:35.269Z,92.67
2022-10-08T05:43:12.561Z,92.65
2022-10-08T05:45:50.251Z,92.71
2022-10-08T05:48:17.008Z,92.81
2022-10-08T05:50:47.774Z,92.54
2022-10-08T05:53:17.597Z,92.41
2022-10-08T05:55:44.485Z,92.54
2022-10-08T05:58:11.204Z,92.72
2022-10-08T06:00:40.281Z,92.63
2022-10-08T06:03:07.278Z,93.17
2022-10-08T06:05:34.147Z,93.06
2022-10-08T06:08:03.054Z,93.10
2022-10-08T06:10:29.821Z,92.89
2022-10-08T06:12:56.631Z,93.45
2022-10-08T06:15:23.545Z,93.18
2022-10-08T06:17:51.507Z,93.58
2022-10-08T06:20:18.198Z,93.16
2022-10-08T06:22:45.374Z,93.63
2022-10-08T06:25:14.627Z,93.98
2022-10-08T06:27:41.485Z,94.21
2022-10-08T06:30:10.307Z,94.49
2022-10-08T06:32:43.429Z,94.59
2022-10-08T06:35:15.321Z,94.56
2022-10-08T06:41:07.050Z,94.09
2022-10-08T06:44:09.820Z,93.80
2022-10-08T06:47:29.062Z,94.31
2022-10-08T06:56:55.688Z,93.76
2022-10-08T06:59:31.582Z,94.02
2022-10-08T07:02:16.749Z,94.19
2022-10-08T07:07:43.976Z,94.30
2022-10-08T07:11:01.351Z,94.08
2022-10-08T07:13:39.220Z,93.94
2022-10-08T07:16:45.982Z,93.77
2022-10-08T07:19:19.830Z,94.21
2022-10-08T07:22:33.029Z,93.84
2022-10-08T07:25:30.123Z,94.08
2022-10-08T07:28:29.229Z,93.86
2022-10-08T07:31:42.049Z,93.85
2022-10-08T07:37:08.451Z,93.01
2022-10-08T07:42:55.956Z,93.02
2022-10-08T07:48:47.682Z,92.87
2022-10-08T07:51:32.990Z,93.06
2022-10-08T07:54:10.052Z,93.11
2022-10-08T07:56:53.352Z,92.83
2022-10-08T07:59:23.536Z,92.81
2022-10-08T08:01:55.656Z,92.59
2022-10-08T08:04:45.816Z,92.56
2022-10-08T08:07:15.415Z,92.72
2022-10-08T08:09:51.973Z,92.01
2022-10-08T08:12:22.765Z,91.69
2022-10-08T08:14:59.656Z,91.29
2022-10-08T08:17:38.412Z,90.94
2022-10-08T08:20:20.847Z,90.81
2022-10-08T08:26:57.516Z,89.80
2022-10-08T08:29:43.452Z,88.06
2022-10-08T08:32:52.462Z,86.91
2022-10-08T08:35:52.748Z,87.87
2022-10-08T08:38:26.028Z,87.41
2022-10-08T08:41:04.119Z,87.04
2022-10-08T08:44:20.627Z,80.24
2022-10-08T08:47:00.018Z,81.94
2022-10-08T08:49:57.685Z,79.68
2022-10-08T08:52:52.443Z,79.53
2022-10-08T09:02:29.343Z,79.38
2022-10-08T09:15:17.142Z,79.24
2022-10-08T09:21:22.645Z,78.25
2022-10-08T09:42:26.892Z,76.49
2022-10-08T09:45:34.967Z,75.86
2022-10-08T09:48:38.475Z,75.45
2022-10-08T09:51:21.613Z,74.38
2022-10-08T09:57:03.394Z,72.36
2022-10-08T09:59:58.857Z,69.88
2022-10-08T10:02:51.060Z,70.84
2022-10-08T10:05:31.418Z,70.65
2022-10-08T10:08:38.386Z,68.74
2022-10-08T10:12:18.088Z,66.85
2022-10-08T10:14:59.515Z,68.08
2022-10-08T10:17:48.732Z,65.45
2022-10-08T10:20:50.442Z,68.97
2022-10-08T10:24:32.099Z,65.86
2022-10-08T10:27:34.404Z,64.87
2022-10-08T10:30:24.790Z,67.13
2022-10-08T10:33:05.306Z,66.26
2022-10-08T10:36:03.969Z,65.10
2022-10-08T10:38:43.088Z,66.01
2022-10-08T10:41:25.117Z,66.11
2022-10-08T10:43:55.337Z,66.56
2022-10-08T10:46:45.870Z,65.42
2022-10-08T10:49:25.930Z,66.42
2022-10-08T10:52:05.346Z,63.85
2022-10-08T10:55:05.108Z,63.08
2022-10-08T10:58:11.555Z,61.84
2022-10-08T11:01:26.437Z,62.50
2022-10-08T11:07:41.146Z,62.17
2022-10-08T11:14:10.399Z,62.21
2022-10-08T11:17:11.907Z,61.08
2022-10-08T11:20:19.767Z,61.70
2022-10-08T11:23:23.124Z,63.06
2022-10-08T11:29:06.159Z,62.19
2022-10-08T11:31:57.776Z,62.99
2022-10-08T11:34:36.436Z,61.83
2022-10-08T11:37:28.143Z,62.96
2022-10-08T11:40:34.472Z,59.98
2022-10-08T11:43:47.746Z,62.19
2022-10-08T11:52:59.402Z,60.45
2022-10-08T11:55:51.514Z,59.35
2022-10-08T11:58:33.993Z,59.59
2022-10-08T12:01:09.830Z,60.49
2022-10-08T12:10:44.563Z,59.00
2022-10-08T12:13:49.229Z,58.16
2022-10-08T12:17:15.296Z,58.21
2022-10-08T12:20:29.059Z,58.24
2022-10-08T12:23:40.087Z,57.16
2022-10-08T12:26:18.836Z,57.65
2022-10-08T12:37:16.807Z,57.47
2022-10-08T12:43:24.635Z,56.04
2022-10-08T12:49:30.328Z,57.73
2022-10-08T12:55:00.882Z,59.38
2022-10-08T12:57:53.826Z,60.09
2022-10-08T13:00:40.274Z,61.11
2022-10-08T13:03:28.660Z,63.60
2022-10-08T13:06:36.930Z,64.17
2022-10-08T13:10:00.846Z,63.79
2022-10-08T13:15:57.520Z,64.60
2022-10-08T13:21:45.965Z,60.60
2022-10-08T13:25:02.479Z,59.69
2022-10-08T13:27:54.197Z,58.13
2022-10-08T13:30:56.127Z,58.04
2022-10-08T13:33:49.785Z,57.90
2022-10-08T13:49:48.317Z,51.18
2022-10-08T13:58:35.522Z,51.90
2022-10-08T14:01:39.317Z,47.68
2022-10-08T14:08:28.769Z,45.09
2022-10-08T14:11:34.079Z,47.72
2022-10-08T14:14:24.735Z,45.81
2022-10-08T14:17:00.670Z,46.25
2022-10-08T14:19:55.029Z,45.52
2022-10-08T14:22:42.694Z,44.16
2022-10-08T14:28:37.412Z,45.46
2022-10-08T14:31:40.711Z,45.64
2022-10-08T14:34:11.124Z,44.38
2022-10-08T14:37:03.008Z,45.12
2022-10-08T14:42:37.755Z,43.08
2022-10-08T14:45:36.924Z,44.74
2022-10-08T14:48:15.773Z,44.38
2022-10-08T14:50:48.629Z,46.00
2022-10-08T14:53:24.257Z,47.05
2022-10-08T14:56:11.571Z,48.38
2022-10-08T14:59:14.070Z,48.88
2022-10-08T15:17:20.654Z,51.71
2022-10-08T15:22:51.865Z,50.98
2022-10-08T15:28:48.030Z,50.00
2022-10-08T15:51:40.975Z,48.98
2022-10-08T15:54:13.898Z,50.14
2022-10-08T16:01:08.254Z,51.28
2022-10-08T16:04:20.420Z,51.34
2022-10-08T16:11:01.503Z,51.29
2022-10-08T16:14:14.751Z,52.73
2022-10-08T16:17:08.851Z,52.66
2022-10-08T16:19:53.573Z,55.20
2022-10-08T16:22:27.007Z,54.82
2022-10-08T16:31:18.069Z,56.63
2022-10-08T16:37:27.915Z,56.77
2022-10-08T16:40:34.477Z,57.43
2022-10-08T18:31:14.866Z,67.97
2022-10-08T18:45:10.223Z,68.64
2022-10-08T18:55:41.542Z,69.26
2022-10-08T19:05:50.482Z,70.75
2022-10-08T20:15:08.421Z,73.59
2022-10-08T20:55:31.131Z,75.66
2022-10-08T20:58:47.750Z,76.14
2022-10-08T21:01:24.471Z,76.14
2022-10-08T21:04:01.818Z,76.38
2022-10-08T21:06:43.631Z,76.19
2022-10-08T21:12:02.170Z,76.60
2022-10-08T21:15:09.200Z,77.00
2022-10-08T21:17:51.112Z,76.96
2022-10-08T21:20:43.781Z,76.92
2022-10-08T21:23:28.901Z,77.10
2022-10-08T21:26:22.306Z,77.58
2022-10-08T21:29:13.796Z,77.72
2022-10-08T21:32:10.877Z,77.36
2022-10-08T21:35:05.192Z,77.42
2022-10-08T21:40:34.335Z,77.92
2022-10-08T21:43:11.793Z,78.06
2022-10-08T21:46:03.767Z,78.22
2022-10-08T21:58:49.174Z,78.66
2022-10-08T22:02:01.950Z,78.49
2022-10-08T22:05:14.483Z,78.61
2022-10-08T22:08:41.624Z,78.65
2022-10-08T22:15:18.832Z,79.45
2022-10-08T22:18:09.437Z,79.84
2022-10-08T22:20:41.332Z,80.22
2022-10-08T22:23:43.791Z,80.30
2022-10-08T22:29:39.141Z,80.38
2022-10-08T22:32:20.050Z,80.99
2022-10-08T22:38:50.558Z,80.94
2022-10-08T22:44:56.513Z,80.79
2022-10-08T22:47:42.409Z,81.13
2022-10-08T22:50:48.981Z,81.08
2022-10-08T22:57:16.753Z,81.09
2022-10-08T23:10:08.001Z,81.39
2022-10-08T23:14:04.837Z,81.15
2022-10-08T23:16:15.918Z,81.17
2022-10-08T23:22:28.218Z,81.58
2022-10-08T23:28:26.343Z,81.69
2022-10-08T23:31:13.152Z,82.05
2022-10-08T23:34:09.658Z,81.59
2022-10-08T23:43:29.492Z,81.55
2022-10-08T23:49:18.157Z,81.58
2022-10-08T23:52:09.311Z,82.01
2022-10-08T23:57:29.838Z,82.24
